createdAt,value
2016-12-18T00:00:04.478Z,971.61
2016-12-18T00:01:04.461Z,971.58
2016-12-18T00:02:04.446Z,971.58
2016-12-18T00:03:04.430Z,971.6
2016-12-18T00:04:04.413Z,971.58
2016-12-18T00:05:04.398Z,971.57
2016-12-18T00:06:04.382Z,971.55
2016-12-18T00:07:04.365Z,971.58
2016-12-18T00:08:04.349Z,971.57
2016-12-18T00:09:04.334Z,971.56
2016-12-18T00:10:04.317Z,971.52
2016-12-18T00:11:04.301Z,971.53
2016-12-18T00:12:04.285Z,971.53
2016-12-18T00:13:04.269Z,971.52
2016-12-18T00:14:04.253Z,971.54
2016-12-18T00:15:04.237Z,971.54
2016-12-18T00:16:04.221Z,971.48
2016-12-18T00:17:04.206Z,971.48
2016-12-18T00:18:04.189Z,971.49
2016-12-18T00:19:04.173Z,971.52
2016-12-18T00:20:04.157Z,971.51
2016-12-18T00:21:04.139Z,971.51
2016-12-18T00:22:04.125Z,971.51
2016-12-18T00:23:04.109Z,971.55
2016-12-18T00:24:04.093Z,971.56
2016-12-18T00:25:04.077Z,971.57
2016-12-18T00:26:04.060Z,971.56
2016-12-18T00:27:04.045Z,971.57
2016-12-18T00:28:04.039Z,971.55
2016-12-18T00:29:04.012Z,971.55
2016-12-18T00:30:03.997Z,971.54
2016-12-18T00:31:03.980Z,971.55
2016-12-18T00:32:03.963Z,971.56
2016-12-18T00:33:03.948Z,971.58
2016-12-18T00:34:03.932Z,971.55
2016-12-18T00:35:03.917Z,971.54
2016-12-18T00:36:03.899Z,971.56
2016-12-18T00:37:03.884Z,971.55
2016-12-18T00:38:03.868Z,971.51
2016-12-18T00:39:03.851Z,971.52
2016-12-18T00:40:03.836Z,971.52
2016-12-18T00:41:03.820Z,971.52
2016-12-18T00:42:03.804Z,971.52
2016-12-18T00:43:03.788Z,971.47
2016-12-18T00:44:03.772Z,971.49
2016-12-18T00:45:03.757Z,971.5
2016-12-18T00:46:03.740Z,971.47
2016-12-18T00:47:03.724Z,971.46
2016-12-18T00:48:03.707Z,971.49
2016-12-18T00:49:03.692Z,971.47
2016-12-18T00:50:03.678Z,971.49
2016-12-18T00:51:03.659Z,971.52
2016-12-18T00:52:03.644Z,971.52
2016-12-18T00:53:03.627Z,971.52
2016-12-18T00:54:03.611Z,971.52
2016-12-18T00:55:03.595Z,971.53
2016-12-18T00:56:03.578Z,971.54
2016-12-18T00:57:03.563Z,971.57
2016-12-18T00:58:03.545Z,971.57
2016-12-18T00:59:03.530Z,971.56
2016-12-18T01:00:03.515Z,971.52
2016-12-18T01:01:03.499Z,971.54
2016-12-18T01:02:03.483Z,971.55
2016-12-18T01:03:03.468Z,971.5
2016-12-18T01:04:03.451Z,971.54
2016-12-18T01:05:03.435Z,971.49
2016-12-18T01:06:03.419Z,971.51
2016-12-18T01:07:03.403Z,971.47
2016-12-18T01:08:03.390Z,971.45
2016-12-18T01:09:03.369Z,971.4
2016-12-18T01:10:03.354Z,971.44
2016-12-18T01:11:03.337Z,971.44
2016-12-18T01:12:03.320Z,971.48
2016-12-18T01:13:03.305Z,971.47
2016-12-18T01:14:03.288Z,971.48
2016-12-18T01:15:03.273Z,971.47
2016-12-18T01:16:03.256Z,971.43
2016-12-18T01:17:03.241Z,971.44
2016-12-18T01:18:03.224Z,971.42
2016-12-18T01:19:03.207Z,971.4
2016-12-18T01:20:03.192Z,971.41
2016-12-18T01:21:03.175Z,971.38
2016-12-18T01:22:03.158Z,971.37
2016-12-18T01:23:03.143Z,971.38
2016-12-18T01:24:03.125Z,971.42
2016-12-18T01:25:03.109Z,971.39
2016-12-18T01:26:03.094Z,971.38
2016-12-18T01:27:03.077Z,971.39
2016-12-18T01:28:03.062Z,971.38
2016-12-18T01:29:03.044Z,971.38
2016-12-18T01:30:03.029Z,971.35
2016-12-18T01:31:03.012Z,971.31
2016-12-18T01:32:02.996Z,971.28
2016-12-18T01:33:02.980Z,971.26
2016-12-18T01:34:02.963Z,971.26
2016-12-18T01:35:02.947Z,971.29
2016-12-18T01:36:02.930Z,971.35
2016-12-18T01:37:02.915Z,971.3
2016-12-18T01:38:02.898Z,971.28
2016-12-18T01:39:02.882Z,971.27
2016-12-18T01:40:02.869Z,971.22
2016-12-18T01:41:02.849Z,971.24
2016-12-18T01:42:02.831Z,971.24
2016-12-18T01:43:02.817Z,971.22
2016-12-18T01:44:02.800Z,971.24
2016-12-18T01:45:02.783Z,971.23
2016-12-18T01:46:02.768Z,971.19
2016-12-18T01:47:02.752Z,971.22
2016-12-18T01:48:02.737Z,971.24
2016-12-18T01:49:02.719Z,971.27
2016-12-18T01:50:02.703Z,971.29
2016-12-18T01:51:02.687Z,971.28
2016-12-18T01:52:02.671Z,971.22
2016-12-18T01:53:02.654Z,971.22
2016-12-18T01:54:02.636Z,971.21
2016-12-18T01:55:02.622Z,971.24
2016-12-18T01:56:02.604Z,971.2
2016-12-18T01:57:02.588Z,971.22
2016-12-18T01:58:02.572Z,971.23
2016-12-18T01:59:02.556Z,971.22
2016-12-18T02:00:02.540Z,971.21
2016-12-18T02:01:02.523Z,971.23
2016-12-18T02:02:02.506Z,971.25
2016-12-18T02:03:02.491Z,971.28
2016-12-18T02:04:02.473Z,971.24
2016-12-18T02:05:02.510Z,971.22
2016-12-18T02:06:02.442Z,971.22
2016-12-18T02:07:02.425Z,971.19
2016-12-18T02:08:02.408Z,971.23
2016-12-18T02:09:02.393Z,971.16
2016-12-18T02:10:02.377Z,971.17
2016-12-18T02:11:02.363Z,971.11
2016-12-18T02:12:02.344Z,971.17
2016-12-18T02:13:02.328Z,971.2
2016-12-18T02:14:02.312Z,971.16
2016-12-18T02:15:02.295Z,971.17
2016-12-18T02:16:02.279Z,971.17
2016-12-18T02:17:02.263Z,971.14
2016-12-18T02:18:02.246Z,971.14
2016-12-18T02:19:02.230Z,971.13
2016-12-18T02:20:02.214Z,971.11
2016-12-18T02:21:02.197Z,971.1
2016-12-18T02:22:02.180Z,971.1
2016-12-18T02:23:02.165Z,971.12
2016-12-18T02:24:02.148Z,971.09
2016-12-18T02:25:02.131Z,971.06
2016-12-18T02:26:02.116Z,971.09
2016-12-18T02:27:02.099Z,971.05
2016-12-18T02:28:02.084Z,971.05
2016-12-18T02:29:02.066Z,971.11
2016-12-18T02:30:02.150Z,971.12
2016-12-18T02:31:02.034Z,971.16
2016-12-18T02:32:02.018Z,971.13
2016-12-18T02:33:02.001Z,971.15
2016-12-18T02:34:01.985Z,971.15
2016-12-18T02:35:01.969Z,971.18
2016-12-18T02:36:01.952Z,971.18
2016-12-18T02:37:01.937Z,971.2
2016-12-18T02:38:01.920Z,971.16
2016-12-18T02:39:01.907Z,971.18
2016-12-18T02:40:01.887Z,971.21
2016-12-18T02:41:01.871Z,971.17
2016-12-18T02:42:01.855Z,971.22
2016-12-18T02:43:01.838Z,971.18
2016-12-18T02:44:01.821Z,971.23
2016-12-18T02:45:01.806Z,971.2
2016-12-18T02:46:01.790Z,971.18
2016-12-18T02:47:01.772Z,971.18
2016-12-18T02:48:01.756Z,971.19
2016-12-18T02:49:01.741Z,971.2
2016-12-18T02:50:01.724Z,971.21
2016-12-18T02:51:01.706Z,971.2
2016-12-18T02:52:01.692Z,971.21
2016-12-18T02:53:01.675Z,971.23
2016-12-18T02:54:01.660Z,971.19
2016-12-18T02:55:01.641Z,971.17
2016-12-18T02:56:01.628Z,971.17
2016-12-18T02:57:01.611Z,971.23
2016-12-18T02:58:01.593Z,971.17
2016-12-18T02:59:01.577Z,971.16
2016-12-18T03:00:01.661Z,971.16
2016-12-18T03:01:01.545Z,971.14
2016-12-18T03:02:01.528Z,971.12
2016-12-18T03:03:01.512Z,971.14
2016-12-18T03:04:01.496Z,971.13
2016-12-18T03:05:01.479Z,971.14
2016-12-18T03:06:01.466Z,971.08
2016-12-18T03:07:01.448Z,971.12
2016-12-18T03:08:01.433Z,971.02
2016-12-18T03:09:01.414Z,971.02
2016-12-18T03:10:01.399Z,971
2016-12-18T03:11:01.383Z,971.06
2016-12-18T03:12:01.366Z,971
2016-12-18T03:13:01.352Z,971.03
2016-12-18T03:14:01.332Z,971
2016-12-18T03:15:01.318Z,970.97
2016-12-18T03:16:01.301Z,971
2016-12-18T03:17:01.285Z,971.02
2016-12-18T03:18:01.269Z,971.03
2016-12-18T03:19:01.253Z,971.04
2016-12-18T03:20:01.237Z,971.04
2016-12-18T03:21:01.221Z,971.02
2016-12-18T03:22:01.205Z,971.04
2016-12-18T03:23:01.189Z,971
2016-12-18T03:24:01.173Z,971
2016-12-18T03:25:01.156Z,971
2016-12-18T03:26:01.141Z,971.02
2016-12-18T03:27:01.124Z,971.03
2016-12-18T03:28:01.108Z,971
2016-12-18T03:29:01.093Z,970.97
2016-12-18T03:30:01.076Z,970.94
2016-12-18T03:31:01.060Z,970.95
2016-12-18T03:32:01.043Z,970.95
2016-12-18T03:33:01.029Z,970.94
2016-12-18T03:34:01.012Z,970.97
2016-12-18T03:35:00.995Z,970.96
2016-12-18T03:36:00.980Z,970.97
2016-12-18T03:37:00.964Z,970.95
2016-12-18T03:38:00.948Z,970.92
2016-12-18T03:39:00.932Z,970.87
2016-12-18T03:40:00.916Z,970.86
2016-12-18T03:41:00.900Z,970.85
2016-12-18T03:42:00.883Z,970.81
2016-12-18T03:43:00.866Z,970.82
2016-12-18T03:44:00.851Z,970.8
2016-12-18T03:45:00.836Z,970.79
2016-12-18T03:46:00.817Z,970.76
2016-12-18T03:47:00.802Z,970.74
2016-12-18T03:48:00.786Z,970.7
2016-12-18T03:49:00.770Z,970.74
2016-12-18T03:50:00.753Z,970.71
2016-12-18T03:51:00.738Z,970.74
2016-12-18T03:52:00.720Z,970.74
2016-12-18T03:53:00.705Z,970.69
2016-12-18T03:54:00.688Z,970.68
2016-12-18T03:55:00.671Z,970.67
2016-12-18T03:56:00.656Z,970.61
2016-12-18T03:57:00.638Z,970.6
2016-12-18T03:58:00.624Z,970.59
2016-12-18T03:59:00.607Z,970.55
2016-12-18T04:00:00.591Z,970.54
2016-12-18T04:01:00.575Z,970.57
2016-12-18T04:02:00.558Z,970.52
2016-12-18T04:03:00.542Z,970.52
2016-12-18T04:04:00.526Z,970.49
2016-12-18T04:05:00.509Z,970.56
2016-12-18T04:06:00.493Z,970.55
2016-12-18T04:07:00.478Z,970.55
2016-12-18T04:08:00.461Z,970.54
2016-12-18T04:09:00.444Z,970.57
2016-12-18T04:10:00.429Z,970.54
2016-12-18T04:11:00.413Z,970.53
2016-12-18T04:12:00.397Z,970.51
2016-12-18T04:13:00.381Z,970.53
2016-12-18T04:14:00.365Z,970.52
2016-12-18T04:15:00.348Z,970.51
2016-12-18T04:16:00.331Z,970.5
2016-12-18T04:17:00.316Z,970.47
2016-12-18T04:18:00.300Z,970.43
2016-12-18T04:19:00.284Z,970.41
2016-12-18T04:20:00.267Z,970.4
2016-12-18T04:21:00.250Z,970.4
2016-12-18T04:22:00.235Z,970.39
2016-12-18T04:23:00.283Z,970.44
2016-12-18T04:24:00.263Z,970.41
2016-12-18T04:25:00.230Z,970.38
2016-12-18T04:26:00.169Z,970.32
2016-12-18T04:27:00.153Z,970.32
2016-12-18T04:28:00.138Z,970.32
2016-12-18T04:29:00.122Z,970.28
2016-12-18T04:30:00.104Z,970.33
2016-12-18T04:31:00.089Z,970.23
2016-12-18T04:32:00.072Z,970.26
2016-12-18T04:33:00.055Z,970.28
2016-12-18T04:34:00.039Z,970.23
2016-12-18T04:35:00.023Z,970.24
2016-12-18T04:36:00.007Z,970.21
2016-12-18T04:36:59.990Z,970.24
2016-12-18T04:37:59.974Z,970.25
2016-12-18T04:38:59.957Z,970.25
2016-12-18T04:39:59.940Z,970.24
2016-12-18T04:40:59.924Z,970.21
2016-12-18T04:41:59.909Z,970.21
2016-12-18T04:42:59.893Z,970.19
2016-12-18T04:43:59.876Z,970.18
2016-12-18T04:44:59.859Z,970.17
2016-12-18T04:45:59.842Z,970.18
2016-12-18T04:46:59.827Z,970.17
2016-12-18T04:47:59.810Z,970.17
2016-12-18T04:48:59.793Z,970.18
2016-12-18T04:49:59.777Z,970.17
2016-12-18T04:50:59.761Z,970.16
2016-12-18T04:51:59.744Z,970.14
2016-12-18T04:52:59.729Z,970.1
2016-12-18T04:53:59.712Z,970.01
2016-12-18T04:54:59.695Z,969.98
2016-12-18T04:55:59.677Z,970
2016-12-18T04:56:59.663Z,969.95
2016-12-18T04:57:59.647Z,969.97
2016-12-18T04:58:59.628Z,970
2016-12-18T04:59:59.614Z,969.99
2016-12-18T05:00:59.597Z,970.02
2016-12-18T05:01:59.581Z,970.1
2016-12-18T05:02:59.563Z,970.11
2016-12-18T05:03:59.547Z,970.14
2016-12-18T05:04:59.531Z,970.18
2016-12-18T05:05:59.513Z,970.2
2016-12-18T05:06:59.498Z,970.22
2016-12-18T05:07:59.482Z,970.19
2016-12-18T05:08:59.466Z,970.2
2016-12-18T05:09:59.449Z,970.21
2016-12-18T05:10:59.431Z,970.22
2016-12-18T05:11:59.416Z,970.21
2016-12-18T05:12:59.400Z,970.16
2016-12-18T05:13:59.383Z,970.15
2016-12-18T05:14:59.366Z,970.14
2016-12-18T05:15:59.351Z,970.14
2016-12-18T05:16:59.334Z,970.17
2016-12-18T05:17:59.318Z,970.13
2016-12-18T05:18:59.301Z,970.18
2016-12-18T05:19:59.285Z,970.18
2016-12-18T05:20:59.272Z,970.17
2016-12-18T05:21:59.251Z,970.22
2016-12-18T05:22:59.235Z,970.26
2016-12-18T05:23:59.219Z,970.3
2016-12-18T05:24:59.203Z,970.32
2016-12-18T05:25:59.186Z,970.29
2016-12-18T05:26:59.170Z,970.26
2016-12-18T05:27:59.153Z,970.27
2016-12-18T05:28:59.136Z,970.32
2016-12-18T05:29:59.120Z,970.3
2016-12-18T05:30:59.104Z,970.34
2016-12-18T05:31:59.087Z,970.35
2016-12-18T05:32:59.071Z,970.33
2016-12-18T05:33:59.055Z,970.38
2016-12-18T05:34:59.038Z,970.4
2016-12-18T05:35:59.022Z,970.42
2016-12-18T05:36:59.005Z,970.45
2016-12-18T05:37:58.989Z,970.44
2016-12-18T05:38:58.970Z,970.46
2016-12-18T05:39:58.955Z,970.44
2016-12-18T05:40:58.939Z,970.4
2016-12-18T05:41:58.921Z,970.4
2016-12-18T05:42:58.906Z,970.45
2016-12-18T05:43:58.888Z,970.44
2016-12-18T05:44:58.872Z,970.44
2016-12-18T05:45:58.856Z,970.42
2016-12-18T05:46:58.840Z,970.41
2016-12-18T05:47:58.824Z,970.45
2016-12-18T05:48:58.807Z,970.45
2016-12-18T05:49:58.791Z,970.53
2016-12-18T05:50:58.775Z,970.53
2016-12-18T05:51:58.758Z,970.55
2016-12-18T05:52:58.741Z,970.61
2016-12-18T05:53:58.724Z,970.6
2016-12-18T05:54:58.708Z,970.56
2016-12-18T05:55:58.691Z,970.59
2016-12-18T05:56:58.674Z,970.57
2016-12-18T05:57:58.658Z,970.61
2016-12-18T05:58:58.640Z,970.55
2016-12-18T05:59:58.625Z,970.6
2016-12-18T06:00:58.607Z,970.59
2016-12-18T06:01:58.592Z,970.65
2016-12-18T06:02:58.574Z,970.62
2016-12-18T06:03:58.556Z,970.64
2016-12-18T06:04:58.540Z,970.61
2016-12-18T06:05:58.523Z,970.62
2016-12-18T06:06:58.507Z,970.56
2016-12-18T06:07:58.490Z,970.5
2016-12-18T06:08:58.473Z,970.46
2016-12-18T06:09:58.458Z,970.47
2016-12-18T06:10:58.440Z,970.41
2016-12-18T06:11:58.422Z,970.42
2016-12-18T06:12:58.406Z,970.42
2016-12-18T06:13:58.390Z,970.36
2016-12-18T06:14:58.374Z,970.35
2016-12-18T06:15:58.355Z,970.36
2016-12-18T06:16:58.338Z,970.3
2016-12-18T06:17:58.323Z,970.29
2016-12-18T06:18:58.304Z,970.29
2016-12-18T06:19:58.289Z,970.22
2016-12-18T06:20:58.273Z,970.25
2016-12-18T06:21:58.255Z,970.21
2016-12-18T06:22:58.239Z,970.11
2016-12-18T06:23:58.221Z,970.08
2016-12-18T06:24:58.206Z,970.03
2016-12-18T06:25:58.189Z,970.03
2016-12-18T06:26:58.171Z,970.01
2016-12-18T06:27:58.155Z,970.01
2016-12-18T06:28:58.139Z,970.03
2016-12-18T06:29:58.131Z,969.98
2016-12-18T06:30:58.105Z,969.92
2016-12-18T06:31:58.088Z,969.95
2016-12-18T06:32:58.072Z,969.9
2016-12-18T06:33:58.054Z,969.91
2016-12-18T06:34:58.039Z,969.89
2016-12-18T06:35:58.022Z,969.88
2016-12-18T06:36:58.006Z,969.91
2016-12-18T06:37:57.988Z,969.89
2016-12-18T06:38:57.972Z,969.87
2016-12-18T06:39:57.957Z,969.88
2016-12-18T06:40:57.937Z,969.82
2016-12-18T06:41:57.922Z,969.82
2016-12-18T06:42:57.906Z,969.8
2016-12-18T06:43:57.888Z,969.84
2016-12-18T06:44:57.871Z,969.81
2016-12-18T06:45:57.854Z,969.76
2016-12-18T06:46:57.840Z,969.74
2016-12-18T06:47:57.823Z,969.79
2016-12-18T06:48:57.808Z,969.78
2016-12-18T06:49:57.790Z,969.73
2016-12-18T06:50:57.772Z,969.7
2016-12-18T06:51:57.754Z,969.76
2016-12-18T06:52:57.740Z,969.83
2016-12-18T06:53:57.725Z,969.88
2016-12-18T06:54:57.707Z,969.89
2016-12-18T06:55:57.689Z,969.89
2016-12-18T06:56:57.673Z,969.89
2016-12-18T06:57:57.656Z,969.85
2016-12-18T06:58:57.640Z,969.86
2016-12-18T06:59:57.624Z,969.84
2016-12-18T07:00:57.607Z,969.87
2016-12-18T07:01:57.590Z,969.86
2016-12-18T07:02:57.572Z,969.89
2016-12-18T07:03:57.556Z,969.88
2016-12-18T07:04:57.540Z,969.83
2016-12-18T07:05:57.524Z,969.85
2016-12-18T07:06:57.507Z,969.82
2016-12-18T07:07:57.491Z,969.74
2016-12-18T07:08:57.475Z,969.77
2016-12-18T07:09:57.457Z,969.71
2016-12-18T07:10:57.440Z,969.7
2016-12-18T07:11:57.425Z,969.74
2016-12-18T07:12:57.409Z,969.71
2016-12-18T07:13:57.391Z,969.67
2016-12-18T07:14:57.376Z,969.7
2016-12-18T07:15:57.359Z,969.69
2016-12-18T07:16:57.343Z,969.73
2016-12-18T07:17:57.325Z,969.8
2016-12-18T07:18:57.310Z,969.81
2016-12-18T07:19:57.293Z,969.83
2016-12-18T07:20:57.281Z,969.86
2016-12-18T07:21:57.260Z,969.82
2016-12-18T07:22:57.244Z,969.8
2016-12-18T07:23:57.228Z,969.87
2016-12-18T07:24:57.210Z,969.9
2016-12-18T07:25:57.195Z,969.91
2016-12-18T07:26:57.178Z,969.97
2016-12-18T07:27:57.162Z,969.94
2016-12-18T07:28:57.145Z,969.99
2016-12-18T07:29:57.129Z,969.97
2016-12-18T07:30:57.112Z,969.93
2016-12-18T07:31:57.095Z,969.89
2016-12-18T07:32:57.078Z,969.89
2016-12-18T07:33:57.061Z,969.94
2016-12-18T07:34:57.046Z,969.92
2016-12-18T07:35:57.029Z,969.89
2016-12-18T07:36:57.012Z,969.87
2016-12-18T07:37:56.996Z,969.89
2016-12-18T07:38:56.979Z,969.92
2016-12-18T07:39:56.962Z,969.93
2016-12-18T07:40:56.947Z,969.97
2016-12-18T07:41:56.930Z,969.97
2016-12-18T07:42:56.913Z,969.91
2016-12-18T07:43:56.896Z,969.9
2016-12-18T07:44:56.880Z,969.88
2016-12-18T07:45:56.863Z,969.85
2016-12-18T07:46:56.846Z,969.82
2016-12-18T07:47:56.831Z,969.88
2016-12-18T07:48:56.814Z,969.9
2016-12-18T07:49:56.797Z,969.91
2016-12-18T07:50:56.779Z,969.86
2016-12-18T07:51:56.764Z,969.82
2016-12-18T07:52:56.748Z,969.78
2016-12-18T07:53:56.730Z,969.78
2016-12-18T07:54:56.714Z,969.74
2016-12-18T07:55:56.698Z,969.75
2016-12-18T07:56:56.681Z,969.72
2016-12-18T07:57:56.665Z,969.71
2016-12-18T07:58:56.648Z,969.72
2016-12-18T07:59:56.631Z,969.73
2016-12-18T08:00:56.617Z,969.7
2016-12-18T08:01:56.598Z,969.67
2016-12-18T08:02:56.581Z,969.7
2016-12-18T08:03:56.565Z,969.72
2016-12-18T08:04:56.547Z,969.78
2016-12-18T08:05:56.531Z,969.85
2016-12-18T08:06:56.515Z,969.89
2016-12-18T08:07:56.499Z,969.9
2016-12-18T08:08:56.481Z,969.88
2016-12-18T08:09:56.465Z,969.89
2016-12-18T08:10:56.449Z,969.89
2016-12-18T08:11:56.433Z,969.86
2016-12-18T08:12:56.416Z,969.89
2016-12-18T08:13:56.399Z,969.89
2016-12-18T08:14:56.382Z,969.94
2016-12-18T08:15:56.366Z,969.93
2016-12-18T08:16:56.350Z,969.85
2016-12-18T08:17:56.333Z,969.85
2016-12-18T08:18:56.318Z,969.72
2016-12-18T08:19:56.300Z,969.73
2016-12-18T08:20:56.283Z,969.59
2016-12-18T08:21:56.268Z,969.56
2016-12-18T08:22:56.251Z,969.57
2016-12-18T08:23:56.235Z,969.55
2016-12-18T08:24:56.219Z,969.61
2016-12-18T08:25:56.203Z,969.59
2016-12-18T08:26:56.185Z,969.57
2016-12-18T08:27:56.170Z,969.49
2016-12-18T08:28:56.153Z,969.49
2016-12-18T08:29:56.136Z,969.51
2016-12-18T08:30:56.120Z,969.53
2016-12-18T08:31:56.104Z,969.6
2016-12-18T08:32:56.088Z,969.65
2016-12-18T08:33:56.071Z,969.66
2016-12-18T08:34:56.055Z,969.66
2016-12-18T08:35:56.040Z,969.64
2016-12-18T08:36:56.024Z,969.59
2016-12-18T08:37:56.005Z,969.59
2016-12-18T08:38:55.990Z,969.6
2016-12-18T08:39:55.975Z,969.67
2016-12-18T08:40:55.958Z,969.76
2016-12-18T08:41:55.941Z,969.7
2016-12-18T08:42:55.924Z,969.77
2016-12-18T08:43:55.908Z,969.67
2016-12-18T08:44:55.894Z,969.67
2016-12-18T08:45:55.875Z,969.7
2016-12-18T08:46:55.860Z,969.64
2016-12-18T08:47:55.844Z,969.61
2016-12-18T08:48:55.827Z,969.57
2016-12-18T08:49:55.813Z,969.62
2016-12-18T08:50:55.795Z,969.65
2016-12-18T08:51:55.780Z,969.73
2016-12-18T08:52:55.762Z,969.76
2016-12-18T08:53:55.745Z,969.75
2016-12-18T08:54:55.730Z,969.69
2016-12-18T08:55:55.715Z,969.73
2016-12-18T08:56:55.698Z,969.72
2016-12-18T08:57:55.682Z,969.72
2016-12-18T08:58:55.667Z,969.79
2016-12-18T08:59:55.650Z,969.83
2016-12-18T09:00:55.633Z,969.76
2016-12-18T09:01:55.618Z,969.8
2016-12-18T09:02:55.601Z,969.79
2016-12-18T09:03:55.587Z,969.84
2016-12-18T09:04:55.567Z,969.82
2016-12-18T09:05:55.553Z,969.84
2016-12-18T09:06:55.536Z,969.82
2016-12-18T09:07:55.520Z,969.81
2016-12-18T09:08:55.504Z,969.8
2016-12-18T09:09:55.488Z,969.76
2016-12-18T09:10:55.471Z,969.76
2016-12-18T09:11:55.455Z,969.76
2016-12-18T09:12:55.440Z,969.77
2016-12-18T09:13:55.423Z,969.75
2016-12-18T09:14:55.406Z,969.69
2016-12-18T09:15:55.391Z,969.68
2016-12-18T09:16:55.374Z,969.69
2016-12-18T09:17:55.357Z,969.67
2016-12-18T09:18:55.345Z,969.64
2016-12-18T09:19:55.326Z,969.66
2016-12-18T09:20:55.309Z,969.62
2016-12-18T09:21:55.293Z,969.64
2016-12-18T09:22:55.277Z,969.61
2016-12-18T09:23:55.260Z,969.54
2016-12-18T09:24:55.298Z,969.54
2016-12-18T09:25:55.230Z,969.55
2016-12-18T09:26:55.213Z,969.5
2016-12-18T09:27:55.198Z,969.48
2016-12-18T09:28:55.181Z,969.48
2016-12-18T09:29:55.166Z,969.46
2016-12-18T09:30:55.149Z,969.48
2016-12-18T09:31:55.134Z,969.42
2016-12-18T09:32:55.118Z,969.43
2016-12-18T09:33:55.103Z,969.52
2016-12-18T09:34:55.086Z,969.52
2016-12-18T09:35:55.073Z,969.52
2016-12-18T09:36:55.055Z,969.5
2016-12-18T09:37:55.038Z,969.48
2016-12-18T09:38:55.022Z,969.41
2016-12-18T09:39:55.007Z,969.4
2016-12-18T09:40:54.991Z,969.48
2016-12-18T09:41:55.121Z,969.48
2016-12-18T09:42:55.089Z,969.42
2016-12-18T09:43:55.006Z,969.44
2016-12-18T09:44:54.928Z,969.4
2016-12-18T09:45:54.913Z,969.45
2016-12-18T09:46:54.897Z,969.45
2016-12-18T09:47:54.879Z,969.39
2016-12-18T09:48:54.863Z,969.42
2016-12-18T09:49:54.849Z,969.37
2016-12-18T09:50:54.834Z,969.34
2016-12-18T09:51:54.816Z,969.38
2016-12-18T09:52:54.800Z,969.32
2016-12-18T09:53:54.785Z,969.34
2016-12-18T09:54:54.767Z,969.32
2016-12-18T09:55:54.752Z,969.31
2016-12-18T09:56:54.735Z,969.34
2016-12-18T09:57:54.720Z,969.36
2016-12-18T09:58:54.702Z,969.38
2016-12-18T09:59:54.688Z,969.37
2016-12-18T10:00:54.672Z,969.38
2016-12-18T10:01:54.654Z,969.37
2016-12-18T10:02:54.639Z,969.35
2016-12-18T10:03:54.622Z,969.41
2016-12-18T10:04:54.607Z,969.42
2016-12-18T10:05:54.644Z,969.41
2016-12-18T10:06:54.729Z,969.4
2016-12-18T10:07:54.559Z,969.41
2016-12-18T10:08:54.542Z,969.44
2016-12-18T10:09:54.526Z,969.33
2016-12-18T10:10:54.511Z,969.3
2016-12-18T10:11:54.493Z,969.31
2016-12-18T10:12:54.477Z,969.33
2016-12-18T10:13:54.460Z,969.32
2016-12-18T10:14:54.445Z,969.28
2016-12-18T10:15:54.429Z,969.27
2016-12-18T10:16:54.412Z,969.32
2016-12-18T10:17:54.396Z,969.3
2016-12-18T10:18:54.380Z,969.28
2016-12-18T10:19:54.364Z,969.3
2016-12-18T10:20:54.346Z,969.26
2016-12-18T10:21:54.368Z,969.24
2016-12-18T10:22:54.484Z,969.24
2016-12-18T10:23:54.391Z,969.24
2016-12-18T10:24:54.282Z,969.24
2016-12-18T10:25:54.265Z,969.23
2016-12-18T10:26:54.249Z,969.17
2016-12-18T10:27:54.233Z,969.16
2016-12-18T10:28:54.217Z,969.09
2016-12-18T10:29:54.201Z,969.06
2016-12-18T10:30:54.358Z,969.1
2016-12-18T10:31:54.268Z,969.08
2016-12-18T10:32:54.291Z,969.1
2016-12-18T10:33:54.247Z,969.05
2016-12-18T10:34:54.253Z,969.09
2016-12-18T10:35:54.338Z,969.04
2016-12-18T10:36:54.222Z,969.05
2016-12-18T10:37:54.072Z,969.04
2016-12-18T10:38:54.056Z,968.99
2016-12-18T10:39:54.040Z,969.02
2016-12-18T10:40:54.024Z,968.91
2016-12-18T10:41:54.007Z,968.86
2016-12-18T10:42:53.991Z,968.83
2016-12-18T10:43:53.974Z,968.82
2016-12-18T10:44:53.959Z,968.89
2016-12-18T10:45:53.942Z,968.84
2016-12-18T10:46:53.926Z,968.87
2016-12-18T10:47:53.909Z,968.86
2016-12-18T10:48:53.893Z,968.85
2016-12-18T10:49:53.878Z,968.82
2016-12-18T10:50:53.860Z,968.81
2016-12-18T10:51:53.846Z,968.82
2016-12-18T10:52:53.827Z,968.83
2016-12-18T10:53:53.811Z,968.83
2016-12-18T10:54:53.796Z,968.85
2016-12-18T10:55:53.779Z,968.87
2016-12-18T10:56:53.796Z,968.82
2016-12-18T10:57:53.781Z,968.79
2016-12-18T10:58:53.778Z,968.78
2016-12-18T10:59:53.748Z,968.75
2016-12-18T11:00:53.697Z,968.69
2016-12-18T11:01:53.697Z,968.68
2016-12-18T11:02:53.665Z,968.69
2016-12-18T11:03:53.650Z,968.65
2016-12-18T11:04:53.632Z,968.65
2016-12-18T11:05:53.617Z,968.65
2016-12-18T11:06:53.601Z,968.55
2016-12-18T11:07:53.583Z,968.59
2016-12-18T11:08:53.569Z,968.59
2016-12-18T11:09:53.552Z,968.56
2016-12-18T11:10:53.537Z,968.53
2016-12-18T11:11:53.519Z,968.51
2016-12-18T11:12:53.504Z,968.59
2016-12-18T11:13:53.488Z,968.62
2016-12-18T11:14:53.471Z,968.6
2016-12-18T11:15:53.455Z,968.54
2016-12-18T11:16:53.439Z,968.56
2016-12-18T11:17:53.422Z,968.48
2016-12-18T11:18:53.407Z,968.48
2016-12-18T11:19:53.391Z,968.41
2016-12-18T11:20:53.374Z,968.36
2016-12-18T11:21:53.359Z,968.42
2016-12-18T11:22:53.342Z,968.38
2016-12-18T11:23:53.327Z,968.38
2016-12-18T11:24:53.311Z,968.38
2016-12-18T11:25:53.295Z,968.37
2016-12-18T11:26:53.279Z,968.35
2016-12-18T11:27:53.263Z,968.29
2016-12-18T11:28:53.247Z,968.28
2016-12-18T11:29:53.256Z,968.26
2016-12-18T11:30:53.217Z,968.14
2016-12-18T11:31:53.256Z,968.14
2016-12-18T11:32:53.217Z,968.11
2016-12-18T11:33:53.198Z,968.12
2016-12-18T11:34:53.187Z,968.11
2016-12-18T11:35:53.169Z,968.16
2016-12-18T11:36:53.203Z,968.14
2016-12-18T11:37:53.140Z,968.12
2016-12-18T11:38:53.126Z,968.11
2016-12-18T11:39:53.104Z,968.13
2016-12-18T11:40:53.085Z,968.11
2016-12-18T11:41:53.125Z,968.09
2016-12-18T11:42:53.060Z,968.12
2016-12-18T11:43:53.046Z,968.07
2016-12-18T11:44:53.027Z,968.09
2016-12-18T11:45:53.010Z,968.05
2016-12-18T11:46:52.998Z,968.03
2016-12-18T11:47:52.982Z,968.03
2016-12-18T11:48:52.958Z,968.08
2016-12-18T11:49:52.946Z,968.02
2016-12-18T11:50:52.935Z,968.09
2016-12-18T11:51:52.920Z,968.06
2016-12-18T11:52:52.905Z,968.07
2016-12-18T11:53:52.892Z,968.12
2016-12-18T11:54:52.842Z,968.09
2016-12-18T11:55:52.858Z,968.04
2016-12-18T11:56:52.844Z,968.08
2016-12-18T11:57:52.831Z,968.1
2016-12-18T11:58:52.779Z,968.08
2016-12-18T11:59:52.764Z,968.09
2016-12-18T12:00:52.749Z,968.07
2016-12-18T12:01:52.733Z,967.98
2016-12-18T12:02:52.717Z,968.02
2016-12-18T12:03:52.701Z,968.1
2016-12-18T12:04:52.717Z,968.02
2016-12-18T12:05:52.671Z,968.02
2016-12-18T12:06:52.656Z,967.98
2016-12-18T12:07:52.641Z,967.98
2016-12-18T12:08:52.653Z,967.98
2016-12-18T12:09:52.610Z,967.97
2016-12-18T12:10:52.623Z,968
2016-12-18T12:11:52.609Z,967.96
2016-12-18T12:12:52.593Z,967.95
2016-12-18T12:13:52.580Z,967.98
2016-12-18T12:14:52.565Z,967.95
2016-12-18T12:15:52.549Z,967.94
2016-12-18T12:16:52.532Z,967.92
2016-12-18T12:17:52.516Z,967.89
2016-12-18T12:18:52.502Z,967.9
2016-12-18T12:19:52.485Z,967.87
2016-12-18T12:20:52.472Z,967.88
2016-12-18T12:21:52.453Z,967.89
2016-12-18T12:22:52.492Z,967.86
2016-12-18T12:23:52.425Z,967.9
2016-12-18T12:24:52.411Z,967.89
2016-12-18T12:25:52.388Z,967.91
2016-12-18T12:26:52.380Z,967.9
2016-12-18T12:27:52.415Z,967.89
2016-12-18T12:28:52.346Z,967.91
2016-12-18T12:29:52.334Z,967.89
2016-12-18T12:30:52.318Z,967.87